createdAt,value
2024-05-09T00:01:55.295Z,32.90
2024-05-09T00:04:28.115Z,32.89
2024-05-09T00:07:01.894Z,32.93
2024-05-09T00:09:34.920Z,33.03
2024-05-09T00:12:08.669Z,33.21
2024-05-09T00:14:41.838Z,33.27
2024-05-09T00:17:15.502Z,33.40
2024-05-09T00:19:49.025Z,33.48
2024-05-09T00:22:22.263Z,33.56
2024-05-09T00:24:55.783Z,33.61
2024-05-09T00:27:29.061Z,33.74
2024-05-09T00:30:04.021Z,33.75
2024-05-09T00:32:37.926Z,33.80
2024-05-09T00:35:11.043Z,33.89
2024-05-09T00:37:43.745Z,33.99
2024-05-09T00:40:22.979Z,34.04
2024-05-09T00:43:04.016Z,34.09
2024-05-09T00:45:38.140Z,34.14
2024-05-09T00:48:14.238Z,34.19
2024-05-09T00:50:50.980Z,34.27
2024-05-09T00:53:23.898Z,34.33
2024-05-09T00:55:58.096Z,34.35
2024-05-09T00:58:32.300Z,34.38
2024-05-09T01:01:05.714Z,34.42
2024-05-09T01:03:42.460Z,34.49
2024-05-09T01:06:15.713Z,34.57
2024-05-09T01:08:50.261Z,34.61
2024-05-09T01:11:24.018Z,34.63
2024-05-09T01:14:00.465Z,34.64
2024-05-09T01:16:34.364Z,34.74
2024-05-09T01:19:08.570Z,34.83
2024-05-09T01:21:43.719Z,34.89
2024-05-09T01:24:16.578Z,34.95
2024-05-09T01:26:49.748Z,34.99
2024-05-09T01:29:22.386Z,35.03
2024-05-09T01:31:55.824Z,35.10
2024-05-09T01:34:29.366Z,35.22
2024-05-09T01:37:02.845Z,35.27
2024-05-09T01:39:35.895Z,35.29
2024-05-09T01:42:09.107Z,35.29
2024-05-09T01:44:41.836Z,35.45
2024-05-09T01:47:15.309Z,35.48
2024-05-09T01:49:47.932Z,35.56
2024-05-09T01:52:21.786Z,35.61
2024-05-09T01:54:54.483Z,35.68
2024-05-09T01:57:27.910Z,35.73
2024-05-09T02:00:06.067Z,35.75
2024-05-09T02:02:42.907Z,35.74
2024-05-09T02:05:16.452Z,35.75
2024-05-09T02:07:49.610Z,35.76
2024-05-09T02:10:32.317Z,35.84
2024-05-09T02:13:07.244Z,35.72
2024-05-09T02:15:43.470Z,35.88
2024-05-09T02:18:17.129Z,36.01
2024-05-09T02:20:54.658Z,36.02
2024-05-09T02:23:28.383Z,36.13
2024-05-09T02:26:05.110Z,36.13
2024-05-09T02:28:38.233Z,36.23
2024-05-09T02:31:20.436Z,36.24
2024-05-09T02:33:53.446Z,36.25
2024-05-09T02:36:26.977Z,36.34
2024-05-09T02:39:00.419Z,36.34
2024-05-09T02:41:32.950Z,36.39
2024-05-09T02:44:06.199Z,36.39
2024-05-09T02:46:38.925Z,36.37
2024-05-09T02:49:12.209Z,36.44
2024-05-09T02:51:45.636Z,36.44
2024-05-09T02:54:20.024Z,36.50
2024-05-09T02:56:54.257Z,36.58
2024-05-09T02:59:28.979Z,36.62
2024-05-09T03:02:03.371Z,36.76
2024-05-09T03:04:37.760Z,36.83
2024-05-09T03:07:11.458Z,36.99
2024-05-09T03:09:50.393Z,37.13
2024-05-09T03:12:24.915Z,37.21
2024-05-09T03:15:02.626Z,37.18
2024-05-09T03:17:37.477Z,37.06
2024-05-09T03:20:20.395Z,37.04
2024-05-09T03:22:58.748Z,37.06
2024-05-09T03:25:35.819Z,36.96
2024-05-09T03:28:11.237Z,36.97
2024-05-09T03:30:45.550Z,37.03
2024-05-09T03:33:20.901Z,36.98
2024-05-09T03:35:55.027Z,37.13
2024-05-09T03:38:29.661Z,37.21
2024-05-09T03:41:04.534Z,37.22
2024-05-09T03:43:38.438Z,37.06
2024-05-09T03:46:12.875Z,37.13
2024-05-09T03:48:48.971Z,36.98
2024-05-09T03:51:28.318Z,36.91
2024-05-09T03:54:06.970Z,36.85
2024-05-09T03:56:41.731Z,36.80
2024-05-09T03:59:16.892Z,36.88
2024-05-09T04:01:51.955Z,36.88
2024-05-09T04:04:25.328Z,36.96
2024-05-09T04:06:58.626Z,36.96
2024-05-09T04:09:32.187Z,36.90
2024-05-09T04:12:10.315Z,37.04
2024-05-09T04:14:47.234Z,36.98
2024-05-09T04:17:20.644Z,37.03
2024-05-09T04:19:54.658Z,37.08
2024-05-09T04:22:28.611Z,37.22
2024-05-09T04:25:02.184Z,37.24
2024-05-09T04:27:35.948Z,37.28
2024-05-09T04:30:15.476Z,37.40
2024-05-09T04:32:55.508Z,37.48
2024-05-09T04:35:29.482Z,37.54
2024-05-09T04:38:03.827Z,37.54
2024-05-09T04:40:40.291Z,37.61
2024-05-09T04:43:22.700Z,37.72
2024-05-09T04:45:57.232Z,37.69
2024-05-09T04:48:31.765Z,37.63
2024-05-09T04:51:08.476Z,37.64
2024-05-09T04:53:41.537Z,37.88
2024-05-09T04:56:14.729Z,37.93
2024-05-09T04:58:48.310Z,37.93
2024-05-09T05:01:22.159Z,38.00
2024-05-09T05:03:56.269Z,38.04
2024-05-09T05:06:30.327Z,38.20
2024-05-09T05:09:04.623Z,38.20
2024-05-09T05:11:39.335Z,38.42
2024-05-09T05:14:16.848Z,38.43
2024-05-09T05:16:54.067Z,38.42
2024-05-09T05:19:32.039Z,38.47
2024-05-09T05:22:10.036Z,38.45
2024-05-09T05:24:46.080Z,38.62
2024-05-09T05:27:24.625Z,38.67
2024-05-09T05:29:59.709Z,38.60
2024-05-09T05:32:35.089Z,38.62
2024-05-09T05:35:10.803Z,38.77
2024-05-09T05:37:46.082Z,38.70
2024-05-09T05:40:28.141Z,38.76
2024-05-09T05:43:12.813Z,38.81
2024-05-09T05:45:46.479Z,38.79
2024-05-09T05:48:21.713Z,38.90
2024-05-09T05:50:56.453Z,38.94
2024-05-09T05:53:34.266Z,38.81
2024-05-09T05:56:12.749Z,38.82
2024-05-09T05:58:47.733Z,38.77
2024-05-09T06:01:22.351Z,38.80
2024-05-09T06:04:01.181Z,38.62
2024-05-09T06:06:36.656Z,38.44
2024-05-09T06:09:18.248Z,38.46
2024-05-09T06:11:53.267Z,38.49
2024-05-09T06:14:28.008Z,38.44
2024-05-09T06:17:01.868Z,38.61
2024-05-09T06:19:37.578Z,38.71
2024-05-09T06:22:13.401Z,38.68
2024-05-09T06:24:47.985Z,38.79
2024-05-09T06:27:23.311Z,38.89
2024-05-09T06:29:58.544Z,38.89
2024-05-09T06:32:35.584Z,38.75
2024-05-09T06:35:14.628Z,38.86
2024-05-09T06:37:57.829Z,39.02
2024-05-09T06:40:37.797Z,39.09
2024-05-09T06:43:22.930Z,39.25
2024-05-09T06:45:57.788Z,39.30
2024-05-09T06:48:31.876Z,39.25
2024-05-09T06:51:06.828Z,39.37
2024-05-09T06:53:44.008Z,39.03
2024-05-09T06:56:18.589Z,38.93
2024-05-09T06:58:53.403Z,38.89
2024-05-09T07:01:32.422Z,38.80
2024-05-09T07:04:08.283Z,38.70
2024-05-09T07:06:43.299Z,38.72
2024-05-09T07:09:18.689Z,38.70
2024-05-09T07:11:53.573Z,38.55
2024-05-09T07:14:28.848Z,38.60
2024-05-09T07:17:03.254Z,38.50
2024-05-09T07:19:43.856Z,38.47
2024-05-09T07:22:19.256Z,38.32
2024-05-09T07:24:53.937Z,38.25
2024-05-09T07:27:41.324Z,38.15
2024-05-09T07:30:22.969Z,38.09
2024-05-09T07:33:07.689Z,38.07
2024-05-09T07:35:42.955Z,38.07
2024-05-09T07:38:17.716Z,38.04
2024-05-09T07:40:58.320Z,37.89
2024-05-09T07:43:33.731Z,37.91
2024-05-09T07:47:03.843Z,37.83
2024-05-09T07:50:53.203Z,37.72
2024-05-09T07:53:21.921Z,37.84
2024-05-09T07:55:06.090Z,37.60
2024-05-09T07:57:43.825Z,37.42
2024-05-09T08:00:26.795Z,37.38
2024-05-09T08:03:07.354Z,37.23
2024-05-09T08:05:45.761Z,37.29
2024-05-09T08:08:21.008Z,37.26
2024-05-09T08:10:55.958Z,37.05
2024-05-09T08:13:30.355Z,36.64
2024-05-09T08:16:05.261Z,36.42
2024-05-09T08:18:40.867Z,36.24
2024-05-09T08:21:25.906Z,36.00
2024-05-09T08:24:00.897Z,35.78
2024-05-09T08:26:36.388Z,35.61
2024-05-09T08:29:15.846Z,35.33
2024-05-09T08:31:50.164Z,35.28
2024-05-09T08:34:27.482Z,35.22
2024-05-09T08:37:10.096Z,35.21
2024-05-09T08:39:50.727Z,35.27
2024-05-09T08:42:27.824Z,35.29
2024-05-09T08:45:03.344Z,35.32
2024-05-09T08:47:38.217Z,35.46
2024-05-09T08:50:24.327Z,35.57
2024-05-09T08:53:13.863Z,35.59
2024-05-09T08:55:50.382Z,35.60
2024-05-09T08:58:27.251Z,35.65
2024-05-09T09:01:02.952Z,35.69
2024-05-09T09:03:49.676Z,35.76
2024-05-09T09:06:29.480Z,35.70
2024-05-09T09:09:04.542Z,35.80
2024-05-09T09:11:40.200Z,35.84
2024-05-09T09:14:17.556Z,35.79
2024-05-09T09:16:58.743Z,35.82
2024-05-09T09:19:35.098Z,35.79
2024-05-09T09:22:15.209Z,35.81
2024-05-09T09:24:50.682Z,35.83
2024-05-09T09:27:26.773Z,35.79
2024-05-09T09:30:00.974Z,35.80
2024-05-09T09:32:36.796Z,35.72
2024-05-09T09:35:11.338Z,35.80
2024-05-09T09:37:45.501Z,35.66
2024-05-09T09:40:32.148Z,35.80
2024-05-09T09:43:09.760Z,35.84
2024-05-09T09:45:45.192Z,35.80
2024-05-09T09:48:19.826Z,35.73
2024-05-09T09:51:02.175Z,35.70
2024-05-09T09:53:38.475Z,35.70
2024-05-09T09:56:14.254Z,35.73
2024-05-09T09:58:51.947Z,35.70
2024-05-09T10:01:25.810Z,35.72
2024-05-09T10:04:08.590Z,35.68
2024-05-09T10:06:47.112Z,35.69
2024-05-09T10:09:23.237Z,35.66
2024-05-09T10:12:00.247Z,35.60
2024-05-09T10:14:43.103Z,35.57
2024-05-09T10:17:17.973Z,35.59
2024-05-09T10:19:52.913Z,35.56
2024-05-09T10:22:31.079Z,35.56
2024-05-09T10:25:15.111Z,35.59
2024-05-09T10:27:59.047Z,35.56
2024-05-09T10:30:36.287Z,35.55
2024-05-09T10:33:14.973Z,35.54
2024-05-09T10:35:57.604Z,35.54
2024-05-09T10:38:31.099Z,35.54
2024-05-09T10:41:04.654Z,35.50
2024-05-09T10:43:41.776Z,35.54
2024-05-09T10:46:17.088Z,35.52
2024-05-09T10:49:04.259Z,35.52
2024-05-09T10:51:39.829Z,35.52
2024-05-09T10:54:13.084Z,35.50
2024-05-09T10:56:47.000Z,35.50
2024-05-09T10:59:20.762Z,35.44
2024-05-09T11:01:57.304Z,35.44
2024-05-09T11:04:32.997Z,35.43
2024-05-09T11:07:10.427Z,35.39
2024-05-09T11:09:49.718Z,35.38
2024-05-09T11:12:24.770Z,35.36
2024-05-09T11:14:58.843Z,35.39
2024-05-09T11:17:40.401Z,35.30
2024-05-09T11:20:20.061Z,35.27
2024-05-09T11:23:03.605Z,35.26
2024-05-09T11:25:38.505Z,35.24
2024-05-09T11:28:12.172Z,35.25
2024-05-09T11:30:46.634Z,35.20
2024-05-09T11:33:22.063Z,35.23
2024-05-09T11:36:00.241Z,35.21
2024-05-09T11:38:34.373Z,35.18
2024-05-09T11:41:11.555Z,35.16
2024-05-09T11:43:44.794Z,35.14
2024-05-09T11:46:18.453Z,35.10
2024-05-09T11:48:52.224Z,35.13
2024-05-09T11:51:25.567Z,35.09
2024-05-09T11:53:59.663Z,35.11
2024-05-09T11:56:32.902Z,35.07
2024-05-09T11:59:06.618Z,35.06
2024-05-09T12:01:40.595Z,35.04
2024-05-09T12:04:18.215Z,35.10
2024-05-09T12:06:56.369Z,35.07
2024-05-09T12:09:30.178Z,34.94
2024-05-09T12:12:07.549Z,34.93
2024-05-09T12:14:42.179Z,34.78
2024-05-09T12:17:19.520Z,34.71
2024-05-09T12:19:56.405Z,34.80
2024-05-09T12:22:36.227Z,34.78
2024-05-09T12:25:11.094Z,34.79
2024-05-09T12:27:45.074Z,34.74
2024-05-09T12:30:29.083Z,34.65
2024-05-09T12:33:15.823Z,34.86
2024-05-09T12:35:50.957Z,34.84
2024-05-09T12:38:24.889Z,34.84
2024-05-09T12:41:02.408Z,34.85
2024-05-09T12:43:35.991Z,34.79
2024-05-09T12:46:15.516Z,34.83
2024-05-09T12:49:01.513Z,34.64
2024-05-09T12:51:35.394Z,34.59
2024-05-09T12:54:12.887Z,34.60
2024-05-09T12:56:46.244Z,34.54
2024-05-09T12:59:19.859Z,34.56
2024-05-09T13:01:56.498Z,34.48
2024-05-09T13:04:33.484Z,34.53
2024-05-09T13:07:11.103Z,34.62
2024-05-09T13:09:48.155Z,34.54
2024-05-09T13:12:30.068Z,34.63
2024-05-09T13:15:07.032Z,34.58
2024-05-09T13:17:49.469Z,34.56
2024-05-09T13:20:29.547Z,34.54
2024-05-09T13:23:12.295Z,34.45
2024-05-09T13:25:47.130Z,34.45
2024-05-09T13:28:24.973Z,34.45
2024-05-09T13:31:00.325Z,34.46
2024-05-09T13:33:37.946Z,34.41
2024-05-09T13:36:11.832Z,34.29
2024-05-09T13:38:44.887Z,34.29
2024-05-09T13:41:19.830Z,34.25
2024-05-09T13:43:58.443Z,34.25
2024-05-09T13:46:32.016Z,34.27
2024-05-09T13:49:11.813Z,34.18
2024-05-09T13:51:46.508Z,34.20
2024-05-09T13:54:22.889Z,34.22
2024-05-09T13:56:58.472Z,34.18
2024-05-09T13:59:32.670Z,34.13
2024-05-09T14:02:10.016Z,34.13
2024-05-09T14:04:44.276Z,34.14
2024-05-09T14:07:18.045Z,34.12
2024-05-09T14:09:58.784Z,34.07
2024-05-09T14:12:39.957Z,34.09
2024-05-09T14:15:17.830Z,34.04
2024-05-09T14:17:58.758Z,34.06
2024-05-09T14:20:33.455Z,33.99
2024-05-09T14:23:12.363Z,34.04
2024-05-09T14:25:47.247Z,34.00
2024-05-09T14:28:32.378Z,33.99
2024-05-09T14:31:10.892Z,33.97
2024-05-09T14:33:51.796Z,33.91
2024-05-09T14:36:27.764Z,33.95
2024-05-09T14:39:00.949Z,33.92
2024-05-09T14:41:34.122Z,33.95
2024-05-09T14:44:08.024Z,33.96
2024-05-09T14:46:52.957Z,33.90
2024-05-09T14:49:26.301Z,33.90
2024-05-09T14:52:03.029Z,33.90
2024-05-09T14:54:43.419Z,33.86
2024-05-09T14:57:18.005Z,33.88
2024-05-09T14:59:52.933Z,33.84
2024-05-09T15:02:29.310Z,33.80
2024-05-09T15:05:18.237Z,33.74
2024-05-09T15:07:51.583Z,33.72
2024-05-09T15:10:34.758Z,33.78
2024-05-09T15:13:14.572Z,33.77
2024-05-09T15:15:52.147Z,33.79
2024-05-09T15:18:31.064Z,33.76
2024-05-09T15:21:06.548Z,33.71
2024-05-09T15:23:47.527Z,33.75
2024-05-09T15:26:23.342Z,33.69
2024-05-09T15:28:56.451Z,33.66
2024-05-09T15:31:30.502Z,33.62
2024-05-09T15:34:10.372Z,33.61
2024-05-09T15:36:46.159Z,33.62
2024-05-09T15:39:19.596Z,33.62
2024-05-09T15:42:00.569Z,33.62
2024-05-09T15:44:35.588Z,33.62
2024-05-09T15:47:11.341Z,33.57
2024-05-09T15:49:51.046Z,33.55
2024-05-09T15:52:33.857Z,33.55
2024-05-09T15:55:11.683Z,33.59
2024-05-09T15:57:52.142Z,33.52
2024-05-09T16:00:37.821Z,33.48
2024-05-09T16:03:16.739Z,33.52
2024-05-09T16:05:50.332Z,33.53
2024-05-09T16:08:23.680Z,33.53
2024-05-09T16:10:58.358Z,33.51
2024-05-09T16:13:31.835Z,33.51
2024-05-09T16:16:06.848Z,33.52
2024-05-09T16:18:47.383Z,33.51
2024-05-09T16:21:20.399Z,33.50
2024-05-09T16:23:53.423Z,33.45
2024-05-09T16:26:26.028Z,33.50
2024-05-09T16:28:58.843Z,33.52
2024-05-09T16:31:36.485Z,33.47
2024-05-09T16:34:10.573Z,33.45
2024-05-09T16:36:45.985Z,33.30
2024-05-09T16:39:19.325Z,33.26
2024-05-09T16:41:52.903Z,33.26
2024-05-09T16:44:26.645Z,33.26
2024-05-09T16:47:00.268Z,33.30
2024-05-09T16:49:41.834Z,33.22
2024-05-09T16:52:19.230Z,33.27
2024-05-09T16:54:52.362Z,33.25
2024-05-09T16:57:25.263Z,33.22
2024-05-09T16:59:58.185Z,33.21
2024-05-09T17:02:32.336Z,33.22
2024-05-09T17:05:05.288Z,33.21
2024-05-09T17:07:38.305Z,33.21
2024-05-09T17:10:19.353Z,33.15
2024-05-09T17:12:59.252Z,33.17
2024-05-09T17:15:32.201Z,33.15
2024-05-09T17:18:09.260Z,33.15
2024-05-09T17:20:41.969Z,33.15
2024-05-09T17:23:17.464Z,33.12
2024-05-09T17:25:50.961Z,33.07
2024-05-09T17:28:26.519Z,33.06
2024-05-09T17:30:59.186Z,33.09
2024-05-09T17:33:35.163Z,33.09
2024-05-09T17:36:08.099Z,33.08
2024-05-09T17:38:42.609Z,33.04
2024-05-09T17:41:15.208Z,33.03
2024-05-09T17:43:48.875Z,33.01
2024-05-09T17:46:21.954Z,33.03
2024-05-09T17:48:56.397Z,33.05
2024-05-09T17:51:29.749Z,33.01
2024-05-09T17:54:03.099Z,33.01
2024-05-09T17:56:35.639Z,32.99
2024-05-09T17:59:10.761Z,32.98
2024-05-09T18:01:43.882Z,32.96
2024-05-09T18:04:16.534Z,32.97
2024-05-09T18:06:49.515Z,32.93
2024-05-09T18:09:22.907Z,32.93
2024-05-09T18:11:56.115Z,32.91
2024-05-09T18:14:28.538Z,32.92
2024-05-09T18:17:00.833Z,32.95
2024-05-09T18:19:33.583Z,32.88
2024-05-09T18:22:06.233Z,32.90
2024-05-09T18:24:38.610Z,32.90
2024-05-09T18:27:11.116Z,32.92
2024-05-09T18:29:43.472Z,32.91
2024-05-09T18:32:19.997Z,32.82
2024-05-09T18:34:55.404Z,32.86
2024-05-09T18:37:28.629Z,32.83
2024-05-09T18:40:01.318Z,32.82
2024-05-09T18:42:33.957Z,32.81
2024-05-09T18:45:09.127Z,32.83
2024-05-09T18:47:44.887Z,32.80
2024-05-09T18:50:24.776Z,32.79
2024-05-09T18:53:04.652Z,32.77
2024-05-09T18:55:37.035Z,32.71
2024-05-09T18:58:10.046Z,32.74
2024-05-09T19:00:45.402Z,32.71
2024-05-09T19:03:20.701Z,32.75
2024-05-09T19:05:56.537Z,32.73
2024-05-09T19:08:30.425Z,32.67
2024-05-09T19:11:04.045Z,32.72
2024-05-09T19:13:36.681Z,32.70
2024-05-09T19:16:09.875Z,32.64
2024-05-09T19:18:42.325Z,32.60
2024-05-09T19:21:16.188Z,32.64
2024-05-09T19:23:52.196Z,32.64
2024-05-09T19:26:28.377Z,32.66
2024-05-09T19:29:00.765Z,32.63
2024-05-09T19:31:33.129Z,32.56
2024-05-09T19:34:09.523Z,32.58
2024-05-09T19:36:42.531Z,32.55
2024-05-09T19:39:15.006Z,32.53
2024-05-09T19:41:48.258Z,32.52
2024-05-09T19:44:23.954Z,32.55
2024-05-09T19:46:56.242Z,32.53
2024-05-09T19:49:29.041Z,32.52
2024-05-09T19:52:07.430Z,32.52
2024-05-09T19:54:42.356Z,32.53
2024-05-09T19:57:37.324Z,32.52
2024-05-09T20:00:21.466Z,32.49
2024-05-09T20:02:54.928Z,32.50
2024-05-09T20:05:28.603Z,32.49
2024-05-09T20:08:01.716Z,32.44
2024-05-09T20:10:35.789Z,32.40
2024-05-09T20:13:09.764Z,32.43
2024-05-09T20:15:42.763Z,32.46
2024-05-09T20:18:15.534Z,32.46
2024-05-09T20:20:50.641Z,32.43
2024-05-09T20:23:24.725Z,32.34
2024-05-09T20:25:57.172Z,32.39
2024-05-09T20:28:29.552Z,32.38
2024-05-09T20:31:01.913Z,32.44
2024-05-09T20:33:36.296Z,32.37
2024-05-09T20:36:09.103Z,32.41
2024-05-09T20:38:41.493Z,32.38
2024-05-09T20:41:13.926Z,32.35
2024-05-09T20:43:46.349Z,32.38
2024-05-09T20:46:18.964Z,32.36
2024-05-09T20:48:51.647Z,32.33
2024-05-09T20:51:27.756Z,32.35
2024-05-09T20:54:01.488Z,32.34
2024-05-09T20:56:34.056Z,32.28
2024-05-09T20:59:07.260Z,32.28
2024-05-09T21:01:39.803Z,32.24
2024-05-09T21:04:12.478Z,32.22
2024-05-09T21:06:45.047Z,32.24
2024-05-09T21:09:17.555Z,32.24
2024-05-09T21:11:49.920Z,32.28
2024-05-09T21:14:24.241Z,32.24
2024-05-09T21:16:56.635Z,32.22
2024-05-09T21:19:29.638Z,32.20
2024-05-09T21:22:02.420Z,32.23
2024-05-09T21:24:35.182Z,32.16
2024-05-09T21:27:08.456Z,32.22
2024-05-09T21:29:41.198Z,32.14
2024-05-09T21:32:13.604Z,32.15
2024-05-09T21:34:49.235Z,32.19
2024-05-09T21:37:21.709Z,32.17
2024-05-09T21:39:54.122Z,32.13
2024-05-09T21:42:26.746Z,32.09
2024-05-09T21:44:59.061Z,32.16
2024-05-09T21:47:31.505Z,32.16
2024-05-09T21:50:18.556Z,32.16
2024-05-09T21:52:56.164Z,32.11
2024-05-09T21:55:28.453Z,32.13
2024-05-09T21:58:01.899Z,32.16
2024-05-09T22:00:38.476Z,32.11
2024-05-09T22:03:12.342Z,32.04
2024-05-09T22:05:49.387Z,32.10
2024-05-09T22:08:22.106Z,32.07
2024-05-09T22:10:54.793Z,32.10
2024-05-09T22:13:27.799Z,32.11
2024-05-09T22:16:00.557Z,32.15
2024-05-09T22:18:33.085Z,32.14
2024-05-09T22:21:05.907Z,32.04
2024-05-09T22:23:38.366Z,32.03
2024-05-09T22:26:11.153Z,32.03
2024-05-09T22:28:43.510Z,32.08
2024-05-09T22:31:15.989Z,32.01
2024-05-09T22:33:49.089Z,32.03
2024-05-09T22:36:21.716Z,32.08
2024-05-09T22:38:54.210Z,32.09
2024-05-09T22:41:29.838Z,32.16
2024-05-09T22:44:03.949Z,32.07
2024-05-09T22:46:37.525Z,32.15
2024-05-09T22:49:13.813Z,32.12
2024-05-09T22:51:46.433Z,32.07
2024-05-09T22:54:19.146Z,32.11
2024-05-09T22:56:51.522Z,32.19
2024-05-09T22:59:24.182Z,32.20
2024-05-09T23:01:57.006Z,32.19
2024-05-09T23:04:29.994Z,32.25
2024-05-09T23:07:02.992Z,32.21
2024-05-09T23:09:36.685Z,32.20
2024-05-09T23:12:09.731Z,32.24
2024-05-09T23:14:42.591Z,32.23
2024-05-09T23:17:15.973Z,32.31
2024-05-09T23:19:48.512Z,32.28
2024-05-09T23:22:21.445Z,32.29
2024-05-09T23:24:54.177Z,32.31
2024-05-09T23:27:27.277Z,32.27
2024-05-09T23:30:00.195Z,32.43
2024-05-09T23:32:33.428Z,32.35
2024-05-09T23:35:06.410Z,32.46
2024-05-09T23:37:39.605Z,32.44
2024-05-09T23:40:18.251Z,32.43
2024-05-09T23:42:51.252Z,32.48
2024-05-09T23:45:23.746Z,32.59
2024-05-09T23:47:56.525Z,32.61
2024-05-09T23:50:35.914Z,32.71
2024-05-09T23:53:11.271Z,32.63
2024-05-09T23:55:44.114Z,32.63
2024-05-09T23:58:16.763Z,32.72
